ホバート の空港の天気 - METARとTAF

ホバート国際空港 ( YMHB / HBA ) - オーストラリア タスマニア州、Cambridge
飛行場実況気象(Metar)
観測時間11/27 20:30 AEDT (11/27 09:30 UTC)
風向・風速西北西 8m/s
視程10km以上
天気現象
少しの雲 雲底高度 1070m
気温11℃
湿度54%
気圧999hPa
METARYMHB 270930Z 30016KT 9999 FEW035 11/02 Q0999
過去の天気等 Google飛行場航空写真 Wunderground天気予報

過去48時間のMETAR

飛行場予報(TAF)
発表時間: 11/27 19:12 AEDT (11/27 08:12 UTC)
予報対象時間: 27日20時 AEDT ~ 28日17時 AEDT
風向・風速北西 5m/s
視程10km以上
なし
28日9時 AEDT から
風向・風速北西 8m/s 瞬間風速 13m/s
視程10km以上
少しの雲 雲底高度 1220m
28日15時 AEDT から
風向・風速西 7m/s
視程10km以上
全天の4割程度の雲 雲底高度 1220m
TAF YMHB 270812Z 2709/2806 32010KT CAVOK
FM272200 32015G25KT 9999 FEW040
FM280400 28014KT 9999 SCT040